| time (UTC) | temp F | wind direction | speed knots | gust knots | rain 1hr in | rain 24hr in | rain mn in | humidity % | barometer mb |
| 20260906230017 | 65 | 202 | 1.7 | 8.7 | 0.00 | 0.00 | 0.00 | 37 | 1024.2 |
| 20260906223017 | 66 | 240 | 1.7 | 10.4 | 0.00 | 0.00 | 0.00 | 37 | 1024.8 |
| 20260906220016 | 67 | 251 | 2.6 | 10.4 | 0.00 | 0.00 | 0.00 | 35 | 1024.4 |
| 20260906213016 | 68 | 224 | 2.6 | 10.4 | 0.00 | 0.00 | 0.00 | 34 | 1024.7 |
| 20260906210016 | 69 | 210 | 2.6 | 13.0 | 0.00 | 0.00 | 0.00 | 30 | 1025.7 |
| 20260906203017 | 68 | 188 | 3.5 | 14.8 | 0.00 | 0.00 | 0.00 | 31 | 1025.2 |
| 20260906200016 | 68 | 188 | 3.5 | 14.8 | 0.00 | 0.00 | 0.00 | 30 | 1025.4 |
| 20260906193017 | 67 | 198 | 3.5 | 10.4 | 0.00 | 0.00 | 0.00 | 29 | 1025.5 |
| 20260906190016 | 69 | 151 | 2.6 | 13.0 | 0.00 | 0.00 | 0.00 | 27 | 1026.1 |
| 20260906183016 | 66 | 150 | 4.3 | 13.0 | 0.00 | 0.00 | 0.00 | 33 | 1026.1 |
| 20260906180016 | 67 | 185 | 2.6 | 11.3 | 0.00 | 0.00 | 0.00 | 31 | 1027.0 |
| 20260906173016 | 68 | 173 | 3.5 | 11.3 | 0.00 | 0.00 | 0.00 | 30 | 1027.9 |
| 20260906170016 | 67 | 202 | 2.6 | 9.6 | 0.00 | 0.00 | 0.00 | 31 | 1028.6 |
| 20260906163016 | 67 | 257 | 1.7 | 9.6 | 0.00 | 0.00 | 0.00 | 36 | 1029.0 |
| 20260906160016 | 64 | 156 | 1.7 | 8.7 | 0.00 | 0.00 | 0.00 | 38 | 1028.7 |
| 20260906153036 | 61 | 190 | 1.7 | 4.3 | 0.00 | 0.00 | 0.00 | 40 | 1028.5 |
| 20260906150036 | 59 | 199 | 1.7 | 4.3 | 0.00 | 0.00 | 0.00 | 44 | 1028.1 |
| 20260906143016 | 57 | 200 | 0.9 | 3.5 | 0.00 | 0.00 | 0.00 | 50 | 1028.2 |
| 20260906140016 | 53 | 201 | 0.0 | 3.5 | 0.00 | 0.00 | 0.00 | 59 | 1027.7 |
| 20260906133015 | 48 | 201 | 0.9 | 3.5 | 0.00 | 0.00 | 0.00 | 57 | 1026.6 |
| 20260906130016 | 46 | 201 | 0.9 | 5.2 | 0.00 | 0.00 | 0.00 | 58 | 1025.8 |
| 20260906123016 | 47 | 200 | 0.9 | 5.2 | 0.00 | 0.00 | 0.00 | 57 | 1026.3 |
| 20260906120016 | 48 | 201 | 0.9 | 5.2 | 0.00 | 0.00 | 0.00 | 54 | 1027.0 |
| 20260906113015 | 47 | 200 | 1.7 | 3.5 | 0.00 | 0.00 | 0.00 | 54 | 1027.1 |
| 20260906110015 | 49 | 201 | 0.9 | 4.3 | 0.00 | 0.00 | 0.00 | 51 | 1027.8 |
| 20260906103016 | 49 | 197 | 0.9 | 4.3 | 0.00 | 0.00 | 0.00 | 50 | 1028.2 |
| 20260906100036 | 50 | 193 | 0.9 | 3.5 | 0.00 | 0.00 | 0.00 | 49 | 1028.3 |
| 20260906093015 | 50 | 193 | 1.7 | 3.5 | 0.00 | 0.00 | 0.00 | 50 | 1028.2 |
| 20260906090015 | 50 | 193 | 0.9 | 3.5 | 0.00 | 0.00 | 0.00 | 50 | 1028.2 |
| 20260906083015 | 50 | 193 | 1.7 | 3.5 | 0.00 | 0.00 | 0.00 | 49 | 1027.4 |
| 20260906080015 | 50 | 193 | 1.7 | 3.5 | 0.00 | 0.00 | 0.00 | 49 | 1027.7 |
| 20260906073015 | 50 | 193 | 1.7 | 3.5 | 0.00 | 0.00 | 0.00 | 48 | 1028.2 |
| 20260906070015 | 50 | 193 | 0.9 | 3.5 | 0.00 | 0.00 | 0.00 | 47 | 1027.7 |
| 20260906063015 | 51 | 193 | 0.9 | 3.5 | 0.00 | 0.00 | 0.00 | 47 | 1027.9 |
| 20260906060015 | 52 | 193 | 1.7 | 3.5 | 0.00 | 0.00 | 0.00 | 45 | 1027.0 |
| 20260906053015 | 53 | 193 | 0.9 | 3.5 | 0.00 | 0.00 | 0.00 | 45 | 1027.6 |
| 20260906050016 | 54 | 193 | 0.9 | 4.3 | 0.00 | 0.00 | 0.00 | 43 | 1027.7 |
| 20260906043015 | 56 | 193 | 0.9 | 4.3 | 0.00 | 0.00 | 0.00 | 42 | 1028.0 |
| 20260906040015 | 56 | 193 | 0.9 | 4.3 | 0.00 | 0.00 | 0.00 | 43 | 1028.0 |
| 20260906033015 | 57 | 193 | 1.7 | 4.3 | 0.00 | 0.00 | 0.00 | 42 | 1027.9 |
| 20260906030015 | 58 | 193 | 0.9 | 4.3 | 0.00 | 0.00 | 0.00 | 40 | 1026.4 |
| 20260906023016 | 59 | 193 | 0.9 | 4.3 | 0.00 | 0.00 | 0.00 | 40 | 1025.0 |
| 20260906020015 | 61 | 193 | 0.9 | 7.0 | 0.00 | 0.00 | 0.00 | 38 | 1024.2 |
| 20260906013015 | 63 | 210 | 1.7 | 7.8 | 0.00 | 0.00 | 0.00 | 36 | 1024.7 |
| 20260906010015 | 64 | 210 | 1.7 | 8.7 | 0.00 | 0.00 | 0.00 | 34 | 1025.4 |
| 20260906003017 | 66 | 197 | 1.7 | 12.2 | 0.00 | 0.00 | 0.00 | 33 | 1025.2 |
| 20260906000037 | 67 | 164 | 3.5 | 12.2 | 0.00 | 0.00 | 0.00 | 31 | 1025.6 |
| 20260905233017 | 68 | 166 | 4.3 | 12.2 | 0.00 | 0.00 | 0.00 | 31 | 1026.1 |